Time;durP1;ratioP1;P1;durP2;ratioP2;P2;SDS_P1;SDS_P2;PMS_P1;PMS_P2;Temp;Humidity;BMP_temperature;BMP_pressure;BME280_temperature;BME280_humidity;BME280_pressure;Samples;Min_cycle;Max_cycle;Signal;HPM_P1;HPM_P2
2023/01/06 00:01:09;;;;;;;4.32;1.73;;;;;;;;;;5027705;28;20044;-79
2023/01/06 00:03:35;;;;;;;2.83;1.38;;;;;;;;;;5044752;28;20036;-79
2023/01/06 00:06:02;;;;;;;4.93;1.35;;;;;;;;;;5018735;28;20112;-80
2023/01/06 00:08:27;;;;;;;6.20;1.50;;;;;;;;;;5044376;28;20040;-79
2023/01/06 00:10:53;;;;;;;3.22;1.20;;;;;;;;;;5044637;28;20036;-79
2023/01/06 00:13:18;;;;;;;3.42;1.25;;;;;;;;;;5043475;28;20025;-80
2023/01/06 00:15:43;;;;;;;2.75;1.40;;;;;;;;;;5041579;28;20049;-79
2023/01/06 00:18:09;;;;;;;5.90;1.45;;;;;;;;;;5043874;28;20032;-80
2023/01/06 00:20:34;;;;;;;2.72;1.25;;;;;;;;;;5044310;28;20021;-79
2023/01/06 00:22:59;;;;;;;3.60;1.55;;;;;;;;;;5043125;28;20032;-79
2023/01/06 00:25:25;;;;;;;2.15;1.42;;;;;;;;;;5024813;28;20034;-79
2023/01/06 00:27:50;;;;;;;2.22;1.17;;;;;;;;;;5044573;28;20114;-79
2023/01/06 00:30:15;;;;;;;3.13;1.52;;;;;;;;;;5043593;28;20044;-80
2023/01/06 00:32:41;;;;;;;3.20;1.67;;;;;;;;;;5026327;28;20044;-79
2023/01/06 00:35:06;;;;;;;4.30;1.25;;;;;;;;;;5037743;28;20026;-79
2023/01/06 00:37:32;;;;;;;3.63;1.35;;;;;;;;;;5021419;28;20518;-80
2023/01/06 00:39:57;;;;;;;4.15;1.83;;;;;;;;;;5044869;28;20025;-79
2023/01/06 00:42:23;;;;;;;3.05;1.52;;;;;;;;;;5043911;28;20124;-80
2023/01/06 00:44:50;;;;;;;3.75;1.10;;;;;;;;;;5044288;28;20025;-80
2023/01/06 00:47:15;;;;;;;3.97;1.08;;;;;;;;;;5043225;28;20035;-80
2023/01/06 00:49:41;;;;;;;4.30;1.60;;;;;;;;;;5043444;28;20044;-78
2023/01/06 00:52:06;;;;;;;2.28;1.27;;;;;;;;;;5025813;28;20020;-79
2023/01/06 00:54:31;;;;;;;4.07;1.10;;;;;;;;;;5043062;28;20029;-80
2023/01/06 00:56:57;;;;;;;5.90;1.50;;;;;;;;;;5026059;28;20037;-80
2023/01/06 00:59:24;;;;;;;3.80;1.20;;;;;;;;;;5025616;28;20068;-80
2023/01/06 01:01:52;;;;;;;4.22;1.30;;;;;;;;;;5042829;28;20040;-79
2023/01/06 01:04:18;;;;;;;1.50;1.10;;;;;;;;;;5037561;28;20020;-80
2023/01/06 01:06:44;;;;;;;5.75;1.20;;;;;;;;;;5044575;28;20433;-79
2023/01/06 01:09:25;;;;;;;5.20;1.60;;;;;;;;;;5043995;28;20033;-79
2023/01/06 01:12:09;;;;;;;4.60;1.20;;;;;;;;;;5044286;28;20601;-80
2023/01/06 01:14:38;;;;;;;2.90;1.13;;;;;;;;;;5043483;28;20048;-79
2023/01/06 01:17:03;;;;;;;3.20;1.30;;;;;;;;;;5043983;28;20029;-80
2023/01/06 01:19:30;;;;;;;3.28;1.00;;;;;;;;;;5044392;28;20039;-79
2023/01/06 01:21:55;;;;;;;3.83;1.20;;;;;;;;;;5024353;28;20016;-80
2023/01/06 01:24:21;;;;;;;5.35;1.13;;;;;;;;;;5042316;28;20033;-79
2023/01/06 01:26:46;;;;;;;2.47;1.13;;;;;;;;;;5044013;28;20048;-79
2023/01/06 01:29:14;;;;;;;2.80;1.10;;;;;;;;;;5026398;28;20039;-79
2023/01/06 01:31:40;;;;;;;5.47;1.10;;;;;;;;;;5022824;28;20059;-80
2023/01/06 01:34:06;;;;;;;1.17;0.80;;;;;;;;;;5043737;28;20492;-79
2023/01/06 01:36:32;;;;;;;2.75;1.08;;;;;;;;;;5026149;28;20855;-79
2023/01/06 01:38:58;;;;;;;3.85;1.35;;;;;;;;;;5043401;28;20033;-79
2023/01/06 01:41:25;;;;;;;2.60;1.08;;;;;;;;;;5043487;28;20119;-80
2023/01/06 01:43:58;;;;;;;2.35;1.05;;;;;;;;;;5024915;28;20048;-79
2023/01/06 01:46:41;;;;;;;0.80;0.80;;;;;;;;;;5044532;28;20079;-79
2023/01/06 01:49:18;;;;;;;1.40;1.05;;;;;;;;;;5024232;28;20179;-80
2023/01/06 01:51:46;;;;;;;4.53;1.15;;;;;;;;;;5043857;28;20033;-79
2023/01/06 01:54:16;;;;;;;2.55;1.20;;;;;;;;;;5042381;28;20048;-80
2023/01/06 01:56:46;;;;;;;2.40;1.13;;;;;;;;;;5026155;28;20045;-80
2023/01/06 01:59:16;;;;;;;2.42;1.08;;;;;;;;;;5009389;28;20179;-79
2023/01/06 02:01:41;;;;;;;1.73;0.95;;;;;;;;;;5041863;28;20013;-80
2023/01/06 02:04:07;;;;;;;4.85;1.23;;;;;;;;;;5027197;28;20394;-80
2023/01/06 02:06:33;;;;;;;3.78;1.15;;;;;;;;;;5045693;28;20032;-79
2023/01/06 02:09:19;;;;;;;3.92;1.10;;;;;;;;;;5048083;28;20033;-79
2023/01/06 02:11:49;;;;;;;2.85;1.00;;;;;;;;;;5048517;28;20043;-80
2023/01/06 02:14:18;;;;;;;0.75;0.68;;;;;;;;;;5029427;28;20028;-80
2023/01/06 02:17:28;;;;;;;1.13;0.90;;;;;;;;;;5045694;28;20464;-79
2023/01/06 02:19:59;;;;;;;3.45;1.02;;;;;;;;;;5001871;28;20135;-79
2023/01/06 02:23:09;;;;;;;1.10;0.88;;;;;;;;;;5028182;28;20044;-80
2023/01/06 02:25:56;;;;;;;3.83;1.10;;;;;;;;;;5042361;28;20498;-79
2023/01/06 02:29:06;;;;;;;3.38;1.30;;;;;;;;;;5047778;28;20090;-79
2023/01/06 02:31:49;;;;;;;1.48;0.90;;;;;;;;;;4991811;28;20132;-79
2023/01/06 02:34:26;;;;;;;3.22;1.13;;;;;;;;;;5048493;28;20070;-80
2023/01/06 02:37:20;;;;;;;2.45;0.85;;;;;;;;;;5047973;28;20095;-80
2023/01/06 02:40:22;;;;;;;5.38;0.88;;;;;;;;;;5029787;28;20045;-80
2023/01/06 02:43:13;;;;;;;2.45;0.90;;;;;;;;;;5030538;28;20033;-80
2023/01/06 02:45:55;;;;;;;1.33;0.70;;;;;;;;;;5045403;28;20040;-80
2023/01/06 02:48:30;;;;;;;1.25;0.70;;;;;;;;;;5047711;28;20037;-80
2023/01/06 02:51:05;;;;;;;4.55;1.30;;;;;;;;;;5029393;28;20571;-79
2023/01/06 02:53:49;;;;;;;2.22;0.90;;;;;;;;;;5030045;28;20112;-80
2023/01/06 02:56:16;;;;;;;3.90;1.00;;;;;;;;;;5026828;28;20075;-79
2023/01/06 02:59:06;;;;;;;2.70;1.33;;;;;;;;;;5026590;28;20049;-80
2023/01/06 03:01:36;;;;;;;4.45;1.10;;;;;;;;;;5027449;28;20216;-79
2023/01/06 03:04:06;;;;;;;3.35;1.27;;;;;;;;;;5039214;28;20166;-80
2023/01/06 03:06:34;;;;;;;1.88;1.08;;;;;;;;;;5029850;28;20040;-79
2023/01/06 03:09:02;;;;;;;2.25;0.95;;;;;;;;;;5047452;28;20316;-80
2023/01/06 03:11:30;;;;;;;3.08;0.85;;;;;;;;;;5029201;28;20040;-79
2023/01/06 03:14:01;;;;;;;4.50;1.00;;;;;;;;;;5047845;28;20029;-80
2023/01/06 03:16:27;;;;;;;3.60;1.00;;;;;;;;;;5028488;28;20024;-79
2023/01/06 03:18:53;;;;;;;5.28;1.20;;;;;;;;;;5029724;28;20044;-80
2023/01/06 03:21:26;;;;;;;4.60;0.85;;;;;;;;;;5046989;28;20037;-80
2023/01/06 03:23:52;;;;;;;;;;;;;;;;;;5046169;28;20172;-79
2023/01/06 03:26:17;;;;;;;1.23;1.10;;;;;;;;;;5045541;28;19920;-79
2023/01/06 03:28:43;;;;;;;1.30;0.82;;;;;;;;;;5047946;28;20620;-80
2023/01/06 03:31:30;;;;;;;2.15;1.20;;;;;;;;;;5050462;28;20036;-80
2023/01/06 03:33:56;;;;;;;0.90;0.80;;;;;;;;;;5051245;28;20093;-79
2023/01/06 03:36:48;;;;;;;3.38;0.90;;;;;;;;;;5045754;28;20473;-80
2023/01/06 03:39:17;;;;;;;0.93;0.75;;;;;;;;;;5045743;28;20041;-79
2023/01/06 03:44:52;;;;;;;1.45;1.05;;;;;;;;;;5047076;28;20138;-79
2023/01/06 03:47:34;;;;;;;3.95;0.90;;;;;;;;;;5044053;28;20029;-80
2023/01/06 03:50:11;;;;;;;2.65;0.70;;;;;;;;;;5046582;28;20043;-79
2023/01/06 03:52:44;;;;;;;3.28;1.10;;;;;;;;;;5041785;28;20053;-80
2023/01/06 03:55:22;;;;;;;0.55;0.50;;;;;;;;;;5047431;28;20406;-80
2023/01/06 03:57:51;;;;;;;1.00;0.82;;;;;;;;;;5047151;28;20049;-79
2023/01/06 04:00:25;;;;;;;4.50;0.90;;;;;;;;;;5045973;28;20442;-80
2023/01/06 04:02:50;;;;;;;2.35;1.00;;;;;;;;;;5046567;28;20033;-80
2023/01/06 04:05:18;;;;;;;0.73;0.70;;;;;;;;;;5029726;28;20040;-79
2023/01/06 04:07:44;;;;;;;1.25;0.65;;;;;;;;;;5036469;28;20033;-78
2023/01/06 04:10:12;;;;;;;1.95;0.73;;;;;;;;;;5041924;28;20493;-79
2023/01/06 04:12:37;;;;;;;1.00;0.77;;;;;;;;;;5028812;28;20041;-80
2023/01/06 04:15:24;;;;;;;3.22;1.67;;;;;;;;;;5046007;28;20614;-79
2023/01/06 04:17:50;;;;;;;2.95;0.75;;;;;;;;;;5028281;28;20060;-79
2023/01/06 04:20:24;;;;;;;1.40;0.90;;;;;;;;;;5046451;28;20465;-79
2023/01/06 04:22:53;;;;;;;1.95;0.80;;;;;;;;;;5047067;28;20039;-79
2023/01/06 04:25:18;;;;;;;1.58;0.90;;;;;;;;;;5047103;28;20028;-80
2023/01/06 04:27:43;;;;;;;2.70;0.90;;;;;;;;;;5046070;28;20040;-79
2023/01/06 04:30:09;;;;;;;1.05;0.80;;;;;;;;;;5025655;28;20182;-79
2023/01/06 04:32:34;;;;;;;2.97;1.13;;;;;;;;;;5044608;28;20045;-81
2023/01/06 04:34:59;;;;;;;2.30;1.13;;;;;;;;;;5026965;28;20043;-79
2023/01/06 04:37:25;;;;;;;1.40;0.98;;;;;;;;;;5046639;28;20052;-80
2023/01/06 04:39:50;;;;;;;1.15;0.90;;;;;;;;;;5046821;28;20534;-80
2023/01/06 04:42:15;;;;;;;3.55;1.15;;;;;;;;;;5025943;28;20029;-80
2023/01/06 04:44:41;;;;;;;4.13;1.27;;;;;;;;;;5044634;28;20070;-79
2023/01/06 04:47:08;;;;;;;1.00;0.80;;;;;;;;;;5028355;28;20025;-79
2023/01/06 04:49:33;;;;;;;6.20;0.90;;;;;;;;;;5045915;28;20068;-78
2023/01/06 04:51:58;;;;;;;3.97;0.98;;;;;;;;;;5045230;28;20025;-79
2023/01/06 04:54:24;;;;;;;3.35;1.00;;;;;;;;;;5043369;28;20656;-79
2023/01/06 04:56:49;;;;;;;0.90;0.80;;;;;;;;;;5046652;28;20040;-79
2023/01/06 04:59:14;;;;;;;1.02;0.90;;;;;;;;;;5045424;28;20036;-79
2023/01/06 05:01:39;;;;;;;1.38;0.80;;;;;;;;;;5028855;28;20033;-79
2023/01/06 05:04:06;;;;;;;2.22;1.00;;;;;;;;;;5047034;28;20017;-79
2023/01/06 05:06:31;;;;;;;2.58;0.93;;;;;;;;;;5046147;28;20040;-80
2023/01/06 05:08:57;;;;;;;1.35;1.08;;;;;;;;;;5028072;28;20086;-80
2023/01/06 05:11:24;;;;;;;1.13;0.90;;;;;;;;;;5046180;28;20032;-79
2023/01/06 05:13:50;;;;;;;1.42;0.80;;;;;;;;;;5024709;28;20021;-80
2023/01/06 05:16:18;;;;;;;1.15;0.88;;;;;;;;;;5047287;28;20095;-79
2023/01/06 05:18:44;;;;;;;1.88;0.85;;;;;;;;;;5045319;28;20036;-80
2023/01/06 05:21:10;;;;;;;2.35;1.00;;;;;;;;;;5045690;28;20029;-80
2023/01/06 05:23:36;;;;;;;1.25;0.90;;;;;;;;;;5027823;28;20409;-80
2023/01/06 05:26:01;;;;;;;1.50;1.00;;;;;;;;;;5046228;28;20061;-79
2023/01/06 05:28:28;;;;;;;1.33;0.90;;;;;;;;;;5027440;28;20060;-80
2023/01/06 05:31:01;;;;;;;1.20;1.10;;;;;;;;;;5026833;28;20041;-80
2023/01/06 05:33:27;;;;;;;1.55;0.80;;;;;;;;;;5025957;28;20056;-80
2023/01/06 05:36:00;;;;;;;0.85;0.68;;;;;;;;;;5044601;28;20068;-80
2023/01/06 05:38:25;;;;;;;1.40;0.90;;;;;;;;;;5041325;28;20056;-80
2023/01/06 05:40:51;;;;;;;0.70;0.65;;;;;;;;;;5045248;28;20056;-79
2023/01/06 05:43:17;;;;;;;1.45;0.82;;;;;;;;;;5045732;28;20039;-80
2023/01/06 05:45:42;;;;;;;0.70;0.70;;;;;;;;;;5027528;28;20041;-79
2023/01/06 05:48:07;;;;;;;1.27;0.68;;;;;;;;;;5044477;28;20036;-79
2023/01/06 05:50:33;;;;;;;0.80;0.70;;;;;;;;;;5045053;28;20119;-79
2023/01/06 05:52:58;;;;;;;2.30;0.60;;;;;;;;;;5024993;28;20036;-80
2023/01/06 05:55:23;;;;;;;0.90;0.80;;;;;;;;;;5045254;28;20032;-79
2023/01/06 05:57:49;;;;;;;1.23;0.65;;;;;;;;;;5045932;28;20076;-80
2023/01/06 06:00:14;;;;;;;0.63;0.60;;;;;;;;;;5044689;28;20425;-79
2023/01/06 06:02:39;;;;;;;0.70;0.60;;;;;;;;;;5045330;28;20033;-79
2023/01/06 06:05:05;;;;;;;1.45;0.60;;;;;;;;;;5030230;28;20025;-80
2023/01/06 06:07:30;;;;;;;0.70;0.60;;;;;;;;;;5024650;28;20760;-79
2023/01/06 06:09:56;;;;;;;0.88;0.70;;;;;;;;;;5046248;28;20079;-79
2023/01/06 06:12:21;;;;;;;0.90;0.70;;;;;;;;;;5044498;28;20036;-80
2023/01/06 06:14:46;;;;;;;0.70;0.70;;;;;;;;;;5027776;28;20032;-80
2023/01/06 06:17:12;;;;;;;0.82;0.70;;;;;;;;;;5024737;28;20112;-80
2023/01/06 06:19:37;;;;;;;0.80;0.68;;;;;;;;;;5027106;28;20068;-80
2023/01/06 06:22:03;;;;;;;0.73;0.60;;;;;;;;;;5044994;28;20016;-79
2023/01/06 06:24:28;;;;;;;1.48;0.88;;;;;;;;;;5042901;28;20037;-79
2023/01/06 06:26:53;;;;;;;1.27;0.80;;;;;;;;;;5044277;28;20478;-80
2023/01/06 06:29:19;;;;;;;1.40;0.70;;;;;;;;;;5027026;28;20025;-80
2023/01/06 06:31:44;;;;;;;1.50;1.00;;;;;;;;;;5043419;28;20037;-80
2023/01/06 06:34:11;;;;;;;0.93;0.70;;;;;;;;;;5026928;28;20025;-79
2023/01/06 06:36:37;;;;;;;0.93;0.70;;;;;;;;;;5044762;28;20072;-79
2023/01/06 06:39:02;;;;;;;3.03;0.90;;;;;;;;;;5044396;28;20064;-80
2023/01/06 06:41:28;;;;;;;1.25;0.85;;;;;;;;;;5025325;28;20025;-79
2023/01/06 06:43:53;;;;;;;0.82;0.75;;;;;;;;;;5041644;28;20033;-80
2023/01/06 06:46:19;;;;;;;1.55;0.90;;;;;;;;;;5043259;28;20029;-81
2023/01/06 06:48:44;;;;;;;2.13;1.17;;;;;;;;;;5043668;28;20040;-79
2023/01/06 06:51:13;;;;;;;1.05;0.95;;;;;;;;;;5026004;28;20044;-79
2023/01/06 06:53:39;;;;;;;3.20;1.15;;;;;;;;;;5023684;28;20051;-80
2023/01/06 06:56:06;;;;;;;1.88;1.20;;;;;;;;;;5047160;28;20739;-80
2023/01/06 06:58:32;;;;;;;1.42;1.10;;;;;;;;;;5030621;28;20103;-79
2023/01/06 07:00:57;;;;;;;2.40;1.10;;;;;;;;;;5047265;28;20009;-80
2023/01/06 07:03:24;;;;;;;5.35;1.85;;;;;;;;;;5042487;28;20041;-80
2023/01/06 07:05:51;;;;;;;1.83;1.40;;;;;;;;;;5028174;28;20037;-80
2023/01/06 07:08:17;;;;;;;2.20;1.20;;;;;;;;;;5010643;28;20726;-80
2023/01/06 07:10:42;;;;;;;2.78;1.25;;;;;;;;;;5026382;28;20021;-80
2023/01/06 07:13:07;;;;;;;3.00;1.30;;;;;;;;;;5010527;28;20075;-79
2023/01/06 07:15:33;;;;;;;1.90;1.30;;;;;;;;;;5028190;28;20111;-80
2023/01/06 07:18:00;;;;;;;3.53;1.20;;;;;;;;;;5026257;28;20037;-80
2023/01/06 07:20:26;;;;;;;2.38;1.27;;;;;;;;;;5009752;28;20099;-80
2023/01/06 07:22:51;;;;;;;1.73;1.25;;;;;;;;;;5010231;28;20498;-80
2023/01/06 07:25:16;;;;;;;1.63;1.05;;;;;;;;;;5026626;28;20490;-79
2023/01/06 07:27:41;;;;;;;2.38;1.23;;;;;;;;;;5010039;28;20037;-79
2023/01/06 07:30:07;;;;;;;1.80;1.33;;;;;;;;;;5030827;28;20461;-80
2023/01/06 07:32:33;;;;;;;1.75;1.23;;;;;;;;;;5045925;28;20765;-80
2023/01/06 07:34:58;;;;;;;2.20;1.55;;;;;;;;;;5046438;28;20641;-81
2023/01/06 07:37:23;;;;;;;2.10;1.20;;;;;;;;;;5047045;28;20045;-80
2023/01/06 07:39:49;;;;;;;1.85;1.10;;;;;;;;;;5046035;28;20067;-80
2023/01/06 07:42:14;;;;;;;3.65;1.30;;;;;;;;;;5043727;28;20029;-80
2023/01/06 07:44:39;;;;;;;2.65;1.20;;;;;;;;;;5047333;28;20056;-80
2023/01/06 07:47:05;;;;;;;2.50;1.27;;;;;;;;;;5046198;28;20047;-80
2023/01/06 07:49:31;;;;;;;3.10;1.40;;;;;;;;;;5046816;28;20021;-80
2023/01/06 07:51:56;;;;;;;2.35;1.23;;;;;;;;;;5047840;28;20017;-78
2023/01/06 07:54:21;;;;;;;1.55;1.10;;;;;;;;;;5041932;28;20041;-80
2023/01/06 07:56:47;;;;;;;1.92;1.33;;;;;;;;;;5024985;28;20037;-77
2023/01/06 07:59:12;;;;;;;1.45;1.13;;;;;;;;;;5024633;28;20091;-80
2023/01/06 08:01:37;;;;;;;2.25;1.70;;;;;;;;;;5042808;28;20037;-80
2023/01/06 08:04:03;;;;;;;2.25;1.50;;;;;;;;;;5022292;28;20060;-79
2023/01/06 08:06:28;;;;;;;2.10;1.42;;;;;;;;;;5025234;28;21532;-80
2023/01/06 08:08:54;;;;;;;2.10;1.20;;;;;;;;;;5030345;28;20528;-79
2023/01/06 08:11:19;;;;;;;2.42;1.23;;;;;;;;;;5040895;28;20032;-79
2023/01/06 08:13:45;;;;;;;1.42;1.23;;;;;;;;;;5039597;28;20111;-79
2023/01/06 08:16:11;;;;;;;5.28;1.38;;;;;;;;;;5029967;28;20037;-79
2023/01/06 08:18:37;;;;;;;2.20;1.48;;;;;;;;;;5044434;28;20090;-80
2023/01/06 08:21:04;;;;;;;1.75;1.30;;;;;;;;;;5046202;28;20053;-79
2023/01/06 08:23:30;;;;;;;1.45;1.10;;;;;;;;;;5028438;28;20017;-80
2023/01/06 08:26:12;;;;;;;3.58;1.48;;;;;;;;;;5022600;28;20031;-79
2023/01/06 08:28:38;;;;;;;2.47;1.60;;;;;;;;;;5027719;28;20064;-80
2023/01/06 08:31:08;;;;;;;1.50;1.30;;;;;;;;;;5027824;28;20819;-80
2023/01/06 08:33:33;;;;;;;2.00;1.35;;;;;;;;;;5046595;28;20052;-80
2023/01/06 08:36:00;;;;;;;1.92;1.40;;;;;;;;;;5029278;28;20110;-79
2023/01/06 08:38:26;;;;;;;1.77;1.40;;;;;;;;;;5045734;28;20082;-80
2023/01/06 08:40:52;;;;;;;2.17;1.60;;;;;;;;;;5047414;28;20006;-80
2023/01/06 08:43:18;;;;;;;2.15;1.50;;;;;;;;;;5045859;28;20466;-80
2023/01/06 08:45:43;;;;;;;2.22;1.33;;;;;;;;;;5028289;28;20529;-79
2023/01/06 08:48:09;;;;;;;2.30;1.50;;;;;;;;;;5046584;28;20071;-79
2023/01/06 08:50:36;;;;;;;4.25;1.80;;;;;;;;;;5046047;28;20048;-79
2023/01/06 08:53:01;;;;;;;2.78;1.70;;;;;;;;;;5045189;28;20029;-79
2023/01/06 08:55:27;;;;;;;2.08;1.42;;;;;;;;;;5045488;28;20047;-80
2023/01/06 08:57:52;;;;;;;4.05;1.60;;;;;;;;;;5046793;28;20107;-80
2023/01/06 09:00:17;;;;;;;2.15;1.60;;;;;;;;;;5044689;28;20049;-80
2023/01/06 09:02:43;;;;;;;1.67;1.45;;;;;;;;;;5039965;28;20035;-80
2023/01/06 09:05:08;;;;;;;4.75;1.45;;;;;;;;;;5025653;28;20863;-80
2023/01/06 09:07:33;;;;;;;2.05;1.23;;;;;;;;;;5024217;28;20061;-79
2023/01/06 09:09:59;;;;;;;1.42;1.33;;;;;;;;;;5027704;28;20132;-80
2023/01/06 09:12:24;;;;;;;3.28;1.35;;;;;;;;;;5044964;28;20120;-80
2023/01/06 09:14:49;;;;;;;1.58;1.20;;;;;;;;;;5022119;28;20112;-80
2023/01/06 09:17:14;;;;;;;1.95;1.20;;;;;;;;;;5026803;28;20043;-80
2023/01/06 09:19:40;;;;;;;1.95;1.52;;;;;;;;;;5028199;28;20595;-80
2023/01/06 09:22:06;;;;;;;1.75;1.33;;;;;;;;;;5027104;28;20025;-81
2023/01/06 09:24:31;;;;;;;2.35;1.27;;;;;;;;;;5045255;28;20025;-79
2023/01/06 09:26:56;;;;;;;1.65;1.40;;;;;;;;;;5044011;28;20785;-80
2023/01/06 09:29:22;;;;;;;2.45;1.70;;;;;;;;;;5044589;28;20036;-80
2023/01/06 09:31:47;;;;;;;1.90;1.27;;;;;;;;;;5042124;28;20094;-80
2023/01/06 09:34:14;;;;;;;2.65;1.40;;;;;;;;;;5043295;28;20047;-80
2023/01/06 09:36:39;;;;;;;2.58;1.40;;;;;;;;;;5026836;28;20033;-80
2023/01/06 09:39:04;;;;;;;1.80;1.55;;;;;;;;;;5045164;28;20075;-80
2023/01/06 09:41:48;;;;;;;2.28;1.52;;;;;;;;;;5044670;28;20020;-79
2023/01/06 09:44:33;;;;;;;;;;;;;;;;;;5047443;28;20021;-80
2023/01/06 09:47:00;;;;;;;3.30;1.30;;;;;;;;;;5044395;28;19923;-80
2023/01/06 09:50:06;;;;;;;2.10;1.30;;;;;;;;;;5044218;28;20167;-79
2023/01/06 09:52:54;;;;;;;3.35;1.30;;;;;;;;;;4976016;28;20095;-78
2023/01/06 09:55:26;;;;;;;1.98;1.60;;;;;;;;;;5034574;28;20086;-80
2023/01/06 09:57:58;;;;;;;2.75;1.50;;;;;;;;;;5037345;28;20595;-80
2023/01/06 10:00:40;;;;;;;3.33;1.08;;;;;;;;;;5035560;28;20033;-79
2023/01/06 10:03:12;;;;;;;2.92;1.60;;;;;;;;;;5036112;28;20124;-79
2023/01/06 10:05:47;;;;;;;2.13;1.58;;;;;;;;;;5042234;28;20120;-79
2023/01/06 10:08:26;;;;;;;9.70;1.98;;;;;;;;;;5044110;28;20158;-79
2023/01/06 10:11:09;;;;;;;4.50;2.00;;;;;;;;;;5044306;28;20044;-80
2023/01/06 10:13:50;;;;;;;2.88;2.00;;;;;;;;;;5024430;28;20053;-79
2023/01/06 10:16:38;;;;;;;3.83;2.17;;;;;;;;;;5035935;28;20087;-75
2023/01/06 10:19:36;;;;;;;3.72;2.10;;;;;;;;;;5042176;28;20047;-80
2023/01/06 10:22:10;;;;;;;3.60;2.28;;;;;;;;;;5043137;28;20048;-79
2023/01/06 10:24:53;;;;;;;4.25;2.08;;;;;;;;;;5026247;28;20130;-79
2023/01/06 10:27:38;;;;;;;5.13;2.67;;;;;;;;;;5049310;28;20063;-80
2023/01/06 10:30:12;;;;;;;3.63;2.03;;;;;;;;;;5030865;28;20029;-79
2023/01/06 10:32:38;;;;;;;2.65;1.77;;;;;;;;;;5048259;28;20032;-80
2023/01/06 10:35:11;;;;;;;2.85;2.00;;;;;;;;;;5049513;28;20029;-80
2023/01/06 10:37:40;;;;;;;3.75;2.38;;;;;;;;;;5031169;28;20713;-80
2023/01/06 10:40:19;;;;;;;4.07;2.30;;;;;;;;;;5048846;28;20037;-80
2023/01/06 10:43:02;;;;;;;3.72;1.98;;;;;;;;;;5044064;28;20708;-79
2023/01/06 10:45:32;;;;;;;5.00;2.60;;;;;;;;;;5047899;28;20059;-80
2023/01/06 10:48:00;;;;;;;2.75;1.95;;;;;;;;;;5049118;28;20399;-81
2023/01/06 10:50:25;;;;;;;3.70;2.58;;;;;;;;;;5046143;28;20589;-80
2023/01/06 10:52:51;;;;;;;2.97;2.20;;;;;;;;;;5049230;28;20130;-81
2023/01/06 10:55:32;;;;;;;3.28;2.42;;;;;;;;;;5048094;28;20496;-80
2023/01/06 10:58:05;;;;;;;3.95;2.40;;;;;;;;;;5030898;28;20049;-81
2023/01/06 11:00:31;;;;;;;3.92;2.28;;;;;;;;;;5030504;28;20029;-79
2023/01/06 11:03:11;;;;;;;3.33;2.28;;;;;;;;;;5049254;28;20025;-80
2023/01/06 11:05:37;;;;;;;7.38;2.60;;;;;;;;;;5030429;28;20036;-79
2023/01/06 11:08:11;;;;;;;3.28;2.28;;;;;;;;;;5049221;28;20025;-80
2023/01/06 11:10:41;;;;;;;5.75;2.25;;;;;;;;;;5048838;28;20116;-81
2023/01/06 11:13:22;;;;;;;6.10;1.95;;;;;;;;;;5048514;28;20037;-79
2023/01/06 11:15:48;;;;;;;5.45;2.40;;;;;;;;;;5048624;28;20469;-81
2023/01/06 11:18:19;;;;;;;3.72;2.20;;;;;;;;;;5047819;28;20028;-79
2023/01/06 11:21:04;;;;;;;3.53;2.45;;;;;;;;;;5027888;28;20078;-79
2023/01/06 11:23:30;;;;;;;3.75;2.40;;;;;;;;;;5046112;28;20036;-79
2023/01/06 11:26:22;;;;;;;3.20;1.92;;;;;;;;;;5047236;28;20021;-80
2023/01/06 11:28:52;;;;;;;3.15;2.17;;;;;;;;;;5042151;28;20449;-80
2023/01/06 11:31:20;;;;;;;3.78;2.30;;;;;;;;;;5047016;28;20659;-79
2023/01/06 11:33:55;;;;;;;4.05;2.75;;;;;;;;;;5046176;28;20057;-79
2023/01/06 11:36:23;;;;;;;2.83;1.80;;;;;;;;;;5047833;28;20098;-79
2023/01/06 11:38:57;;;;;;;2.83;2.05;;;;;;;;;;5022190;28;20542;-79
2023/01/06 11:41:36;;;;;;;3.67;2.00;;;;;;;;;;5039914;28;20107;-79
2023/01/06 11:44:14;;;;;;;5.50;2.20;;;;;;;;;;5047339;28;20029;-79
2023/01/06 11:46:47;;;;;;;3.05;1.80;;;;;;;;;;5046700;28;20048;-79
2023/01/06 11:49:18;;;;;;;2.90;2.03;;;;;;;;;;5046180;28;20117;-79
2023/01/06 11:51:47;;;;;;;6.00;2.38;;;;;;;;;;5047128;28;20475;-79
2023/01/06 11:54:31;;;;;;;3.67;2.13;;;;;;;;;;5028897;28;20032;-79
2023/01/06 11:57:31;;;;;;;3.63;2.08;;;;;;;;;;5047711;28;20116;-79
2023/01/06 12:00:04;;;;;;;3.20;2.00;;;;;;;;;;5022244;28;20087;-78
2023/01/06 12:02:47;;;;;;;4.18;1.98;;;;;;;;;;5045078;28;20383;-79
2023/01/06 12:05:39;;;;;;;4.07;2.40;;;;;;;;;;5027021;28;20025;-80
2023/01/06 12:08:24;;;;;;;3.20;1.90;;;;;;;;;;5009475;28;20518;-80
2023/01/06 12:10:55;;;;;;;2.80;1.70;;;;;;;;;;5024606;28;20046;-80
2023/01/06 12:13:20;;;;;;;2.65;1.75;;;;;;;;;;5025739;28;20071;-80
2023/01/06 12:15:57;;;;;;;5.97;1.83;;;;;;;;;;5026788;28;20030;-80
2023/01/06 12:18:29;;;;;;;2.60;1.52;;;;;;;;;;5022587;28;20396;-79
2023/01/06 12:20:55;;;;;;;3.33;1.90;;;;;;;;;;5026890;28;20057;-80
2023/01/06 12:23:25;;;;;;;4.28;2.20;;;;;;;;;;5025171;28;20049;-79
2023/01/06 12:25:57;;;;;;;3.00;2.10;;;;;;;;;;5026486;28;20144;-79
2023/01/06 12:28:32;;;;;;;4.18;2.10;;;;;;;;;;5028280;28;20055;-79
2023/01/06 12:31:14;;;;;;;3.38;1.75;;;;;;;;;;5046386;28;20037;-79
2023/01/06 12:33:52;;;;;;;3.40;1.85;;;;;;;;;;5046423;28;20028;-79
2023/01/06 12:36:41;;;;;;;3.28;1.98;;;;;;;;;;5044887;28;20442;-78
2023/01/06 12:39:18;;;;;;;3.38;2.20;;;;;;;;;;5045567;28;20033;-79
2023/01/06 12:41:52;;;;;;;4.10;2.30;;;;;;;;;;5046236;28;20039;-78
2023/01/06 12:44:44;;;;;;;3.00;1.95;;;;;;;;;;5045589;28;20024;-78
2023/01/06 12:47:17;;;;;;;1.80;1.50;;;;;;;;;;5046352;28;20056;-79
2023/01/06 12:49:46;;;;;;;4.18;2.10;;;;;;;;;;5045819;28;20552;-79
2023/01/06 12:52:18;;;;;;;3.58;2.20;;;;;;;;;;5046826;28;20382;-79
2023/01/06 12:54:51;;;;;;;3.35;2.00;;;;;;;;;;5044712;28;20587;-79
2023/01/06 12:57:54;;;;;;;3.25;1.75;;;;;;;;;;5045981;28;20506;-78
2023/01/06 13:00:42;;;;;;;4.25;1.55;;;;;;;;;;5044853;28;20025;-79
2023/01/06 13:03:19;;;;;;;2.05;1.40;;;;;;;;;;5046583;28;20032;-80
2023/01/06 13:05:59;;;;;;;2.67;1.50;;;;;;;;;;5045751;28;20086;-79
2023/01/06 13:08:36;;;;;;;1.98;1.40;;;;;;;;;;5046658;28;20107;-79
2023/01/06 13:11:24;;;;;;;2.95;1.55;;;;;;;;;;5045068;28;20017;-79
2023/01/06 13:13:52;;;;;;;3.55;1.58;;;;;;;;;;5044406;28;20041;-76
2023/01/06 13:16:47;;;;;;;2.80;1.55;;;;;;;;;;5042440;28;20709;-78
2023/01/06 13:19:32;;;;;;;1.77;1.25;;;;;;;;;;5015568;28;20037;-78
2023/01/06 13:22:00;;;;;;;3.95;1.58;;;;;;;;;;5027911;28;20033;-78
2023/01/06 13:24:42;;;;;;;2.83;1.20;;;;;;;;;;5027027;28;20516;-78
2023/01/06 13:27:37;;;;;;;2.25;1.40;;;;;;;;;;5043679;28;20099;-78
2023/01/06 13:30:27;;;;;;;2.20;1.48;;;;;;;;;;5032763;28;20936;-79
2023/01/06 13:33:30;;;;;;;2.25;1.50;;;;;;;;;;5036871;28;20045;-79
2023/01/06 13:36:02;;;;;;;2.83;1.50;;;;;;;;;;5026257;28;20073;-78
2023/01/06 13:38:47;;;;;;;3.38;1.70;;;;;;;;;;5037252;28;20445;-79
2023/01/06 13:41:18;;;;;;;3.13;1.80;;;;;;;;;;5024194;28;20116;-79
2023/01/06 13:43:46;;;;;;;4.32;2.00;;;;;;;;;;5042598;28;20036;-79
2023/01/06 13:46:15;;;;;;;5.55;2.30;;;;;;;;;;5041559;28;20033;-80
2023/01/06 13:48:44;;;;;;;5.53;2.58;;;;;;;;;;5043896;28;20529;-79
2023/01/06 13:51:13;;;;;;;33.42;10.55;;;;;;;;;;5026395;28;20122;-79
2023/01/06 13:53:43;;;;;;;33.30;16.10;;;;;;;;;;5042482;28;20082;-81
2023/01/06 13:56:12;;;;;;;24.20;12.45;;;;;;;;;;5026781;28;20878;-80
2023/01/06 13:58:49;;;;;;;6.95;4.50;;;;;;;;;;5027883;28;20899;-81
2023/01/06 14:01:17;;;;;;;10.85;4.63;;;;;;;;;;5033222;28;20402;-81
2023/01/06 14:03:44;;;;;;;13.93;6.28;;;;;;;;;;5018835;28;20033;-79
2023/01/06 14:06:38;;;;;;;13.70;5.57;;;;;;;;;;5039513;28;20155;-81
2023/01/06 14:09:03;;;;;;;;;;;;;;;;;;5042758;28;20048;-82
2023/01/06 14:11:31;;;;;;;12.65;8.55;;;;;;;;;;5035053;28;20042;-84
2023/01/06 14:14:02;;;;;;;9.23;5.90;;;;;;;;;;5026377;28;20026;-81
2023/01/06 14:16:46;;;;;;;8.43;3.70;;;;;;;;;;5043091;28;20033;-84
2023/01/06 14:19:22;;;;;;;5.53;3.10;;;;;;;;;;5026456;28;20037;-81
2023/01/06 14:21:51;;;;;;;5.05;3.13;;;;;;;;;;5026665;28;20140;-80
2023/01/06 14:24:31;;;;;;;6.57;3.55;;;;;;;;;;5042926;28;20033;-82
2023/01/06 14:27:03;;;;;;;4.68;2.50;;;;;;;;;;5024432;28;20502;-81
2023/01/06 14:29:41;;;;;;;4.45;2.50;;;;;;;;;;5041778;28;20037;-78
2023/01/06 14:32:12;;;;;;;8.25;3.85;;;;;;;;;;5042874;28;20032;-78
2023/01/06 14:34:43;;;;;;;6.90;3.85;;;;;;;;;;5043058;28;20525;-76
2023/01/06 14:37:13;;;;;;;7.38;3.38;;;;;;;;;;5038114;28;20175;-80
2023/01/06 14:39:41;;;;;;;8.25;5.25;;;;;;;;;;5041118;28;20025;-81
2023/01/06 14:42:20;;;;;;;9.63;6.35;;;;;;;;;;5043065;28;20532;-80
2023/01/06 14:44:54;;;;;;;5.40;3.50;;;;;;;;;;5036161;28;20025;-82
2023/01/06 14:47:26;;;;;;;6.30;4.05;;;;;;;;;;5034570;28;20052;-80
2023/01/06 14:50:01;;;;;;;5.80;3.72;;;;;;;;;;5025113;28;20103;-80
2023/01/06 14:52:35;;;;;;;8.20;4.85;;;;;;;;;;5023615;28;20030;-80
2023/01/06 14:55:02;;;;;;;10.10;5.38;;;;;;;;;;5025846;28;20112;-80
2023/01/06 14:57:38;;;;;;;4.13;2.47;;;;;;;;;;5033047;28;20045;-80
2023/01/06 15:00:23;;;;;;;4.60;3.10;;;;;;;;;;5006617;28;20124;-80
2023/01/06 15:02:54;;;;;;;3.03;1.70;;;;;;;;;;5025498;28;20042;-80
2023/01/06 15:05:28;;;;;;;4.32;2.40;;;;;;;;;;5042562;28;20075;-80
2023/01/06 15:08:26;;;;;;;5.68;3.08;;;;;;;;;;5030761;28;20041;-80
2023/01/06 15:10:52;;;;;;;4.70;2.50;;;;;;;;;;5011662;28;20099;-80